createdAt,value
2023-04-19T00:01:28.523Z,10.73
2023-04-19T00:04:31.426Z,9.45
2023-04-19T00:07:34.272Z,9.57
2023-04-19T00:10:37.652Z,9.43
2023-04-19T00:13:40.188Z,13.15
2023-04-19T00:16:42.743Z,11.45
2023-04-19T00:19:45.155Z,14.55
2023-04-19T00:22:47.705Z,16.10
2023-04-19T00:25:50.846Z,14.13
2023-04-19T00:28:53.344Z,14.83
2023-04-19T00:31:55.762Z,13.90
2023-04-19T00:34:59.472Z,14.18
2023-04-19T00:38:01.888Z,17.20
2023-04-19T00:41:04.217Z,16.23
2023-04-19T00:44:06.612Z,15.07
2023-04-19T00:47:09.117Z,13.73
2023-04-19T00:50:12.059Z,14.88
2023-04-19T00:53:14.568Z,11.50
2023-04-19T00:56:17.600Z,14.05
2023-04-19T00:59:20.466Z,15.93
2023-04-19T01:02:23.387Z,10.80
2023-04-19T01:05:28.133Z,16.73
2023-04-19T01:08:30.821Z,13.57
2023-04-19T01:11:33.223Z,11.45
2023-04-19T01:14:35.666Z,16.08
2023-04-19T01:17:38.926Z,12.15
2023-04-19T01:20:41.631Z,11.95
2023-04-19T01:23:43.964Z,14.02
2023-04-19T01:26:46.813Z,12.80
2023-04-19T01:29:49.129Z,11.00
2023-04-19T01:32:52.999Z,13.20
2023-04-19T01:35:56.271Z,11.73
2023-04-19T01:38:58.715Z,11.68
2023-04-19T01:42:01.624Z,13.43
2023-04-19T01:45:05.889Z,11.27
2023-04-19T01:48:08.384Z,12.63
2023-04-19T01:51:11.117Z,15.38
2023-04-19T01:54:13.913Z,18.65
2023-04-19T01:57:16.997Z,11.27
2023-04-19T02:00:19.450Z,14.32
2023-04-19T02:03:23.273Z,13.20
2023-04-19T02:06:27.092Z,15.43
2023-04-19T02:09:29.821Z,11.93
2023-04-19T02:12:33.812Z,15.35
2023-04-19T02:15:38.299Z,18.55
2023-04-19T02:18:41.678Z,13.98
2023-04-19T02:21:44.121Z,13.95
2023-04-19T02:24:51.395Z,16.15
2023-04-19T02:30:57.032Z,11.40
2023-04-19T02:33:59.628Z,15.70
2023-04-19T02:37:03.609Z,15.45
2023-04-19T02:40:06.690Z,15.05
2023-04-19T02:43:09.073Z,12.25
2023-04-19T02:46:11.544Z,15.68
2023-04-19T02:49:14.010Z,19.58
2023-04-19T02:52:16.457Z,11.90
2023-04-19T02:55:19.191Z,11.25
2023-04-19T02:58:24.877Z,16.33
2023-04-19T03:01:40.515Z,15.20
2023-04-19T03:04:43.762Z,9.77
2023-04-19T03:07:47.100Z,9.98
2023-04-19T03:10:49.954Z,15.73
2023-04-19T03:13:52.422Z,12.13
2023-04-19T03:16:54.936Z,11.05
2023-04-19T03:19:57.758Z,13.20
2023-04-19T03:23:00.458Z,14.68
2023-04-19T03:26:04.115Z,14.00
2023-04-19T03:29:14.709Z,18.77
2023-04-19T03:32:28.193Z,14.57
2023-04-19T03:35:32.362Z,18.30
2023-04-19T03:38:44.582Z,20.80
2023-04-19T03:41:52.277Z,16.58
2023-04-19T03:45:16.229Z,20.65
2023-04-19T03:48:22.544Z,16.33
2023-04-19T03:51:26.924Z,13.93
2023-04-19T03:54:29.458Z,10.88
2023-04-19T03:57:33.148Z,14.07
2023-04-19T04:00:39.682Z,15.82
2023-04-19T04:03:42.541Z,14.57
2023-04-19T04:06:45.770Z,11.50
2023-04-19T04:09:51.287Z,15.30
2023-04-19T04:12:54.005Z,14.07
2023-04-19T04:16:04.415Z,11.75
2023-04-19T04:19:07.951Z,11.77
2023-04-19T04:22:13.808Z,12.55
2023-04-19T04:25:18.925Z,9.65
2023-04-19T04:28:23.741Z,13.32
2023-04-19T04:31:26.658Z,9.95
2023-04-19T04:34:29.261Z,12.07
2023-04-19T04:37:40.325Z,14.88
2023-04-19T04:40:42.766Z,11.85
2023-04-19T04:43:58.599Z,15.80
2023-04-19T04:47:14.270Z,16.48
2023-04-19T04:50:23.332Z,15.70
2023-04-19T04:53:28.680Z,17.00
2023-04-19T04:56:31.566Z,12.77
2023-04-19T04:59:34.787Z,12.33
2023-04-19T05:05:42.282Z,11.68
2023-04-19T05:08:45.904Z,11.98
2023-04-19T05:11:57.338Z,10.52
2023-04-19T05:15:00.591Z,11.30
2023-04-19T05:18:03.587Z,12.55
2023-04-19T05:21:07.046Z,10.90
2023-04-19T05:24:10.310Z,13.10
2023-04-19T05:27:13.220Z,7.95
2023-04-19T05:30:15.926Z,13.70
2023-04-19T05:33:20.482Z,13.25
2023-04-19T05:36:24.618Z,13.13
2023-04-19T05:39:28.659Z,13.38
2023-04-19T05:42:31.342Z,13.82
2023-04-19T05:45:33.931Z,15.57
2023-04-19T05:48:37.283Z,13.13
2023-04-19T05:52:02.902Z,10.77
2023-04-19T05:55:18.299Z,14.60
2023-04-19T05:58:21.797Z,8.50
2023-04-19T06:01:24.857Z,13.90
2023-04-19T06:04:28.197Z,11.68
2023-04-19T06:07:34.137Z,10.75
2023-04-19T06:10:53.411Z,14.95
2023-04-19T06:13:57.911Z,13.80
2023-04-19T06:17:00.404Z,15.90
2023-04-19T06:20:06.144Z,14.98
2023-04-19T06:23:08.881Z,15.60
2023-04-19T06:26:12.048Z,16.67
2023-04-19T06:29:14.757Z,15.67
2023-04-19T06:32:17.351Z,14.30
2023-04-19T06:35:19.980Z,21.52
2023-04-19T06:38:22.533Z,15.95
2023-04-19T06:41:24.990Z,13.15
2023-04-19T06:44:27.415Z,17.33
2023-04-19T06:47:30.196Z,14.32
2023-04-19T06:50:32.689Z,11.38
2023-04-19T06:53:36.052Z,18.88
2023-04-19T06:56:48.440Z,10.57
2023-04-19T06:59:50.971Z,18.48
2023-04-19T07:02:53.474Z,17.08
2023-04-19T07:05:58.936Z,12.07
2023-04-19T07:09:01.904Z,15.82
2023-04-19T07:12:04.434Z,15.93
2023-04-19T07:15:07.878Z,15.75
2023-04-19T07:18:16.245Z,10.90
2023-04-19T07:21:18.802Z,14.32
2023-04-19T07:24:21.303Z,10.20
2023-04-19T07:27:23.678Z,12.25
2023-04-19T07:30:26.189Z,14.95
2023-04-19T07:33:28.829Z,13.80
2023-04-19T07:36:31.981Z,11.70
2023-04-19T07:39:34.547Z,9.00
2023-04-19T07:42:37.055Z,11.80
2023-04-19T07:45:39.493Z,13.63
2023-04-19T07:48:41.814Z,15.50
2023-04-19T07:51:44.090Z,11.90
2023-04-19T07:54:47.251Z,15.90
2023-04-19T07:57:50.449Z,12.00
2023-04-19T08:00:52.866Z,12.63
2023-04-19T08:03:55.516Z,14.73
2023-04-19T08:06:58.159Z,14.30
2023-04-19T08:10:00.536Z,13.70
2023-04-19T08:13:06.267Z,12.35
2023-04-19T08:19:14.451Z,14.02
2023-04-19T08:22:18.195Z,17.33
2023-04-19T08:25:21.472Z,15.82
2023-04-19T08:28:24.147Z,11.85
2023-04-19T08:31:26.791Z,10.98
2023-04-19T08:34:29.556Z,11.55
2023-04-19T08:37:32.001Z,13.40
2023-04-19T08:40:34.672Z,14.27
2023-04-19T08:43:38.421Z,16.60
2023-04-19T08:46:42.969Z,13.32
2023-04-19T08:49:47.592Z,13.60
2023-04-19T08:52:58.794Z,10.00
2023-04-19T08:59:19.758Z,13.63
2023-04-19T09:02:23.098Z,7.55
2023-04-19T09:05:26.045Z,9.20
2023-04-19T09:08:30.687Z,15.70
2023-04-19T09:11:39.065Z,11.57
2023-04-19T09:14:57.817Z,10.43
2023-04-19T09:18:08.226Z,10.05
2023-04-19T09:21:10.713Z,10.23
2023-04-19T09:24:13.277Z,18.73
2023-04-19T09:27:25.888Z,17.38
2023-04-19T09:30:33.790Z,9.20
2023-04-19T09:33:40.562Z,14.40
2023-04-19T09:36:43.118Z,20.50
2023-04-19T09:39:45.651Z,8.45
2023-04-19T09:45:53.287Z,10.68
2023-04-19T09:48:56.272Z,8.13
2023-04-19T09:51:59.579Z,8.73
2023-04-19T09:55:11.399Z,15.55
2023-04-19T09:58:29.428Z,11.68
2023-04-19T10:01:43.855Z,10.35
2023-04-19T10:05:03.180Z,10.43
2023-04-19T10:08:10.868Z,9.07
2023-04-19T10:11:13.888Z,7.28
2023-04-19T10:14:20.727Z,9.15
2023-04-19T10:17:24.720Z,7.55
2023-04-19T10:20:43.393Z,13.45
2023-04-19T10:23:45.951Z,20.20
2023-04-19T10:27:08.935Z,5.00
2023-04-19T10:30:21.536Z,6.15
2023-04-19T10:33:28.593Z,13.90
2023-04-19T10:36:31.163Z,6.30
2023-04-19T10:39:44.199Z,9.13
2023-04-19T10:43:11.313Z,9.00
2023-04-19T10:46:22.567Z,8.13
2023-04-19T10:49:25.110Z,8.23
2023-04-19T10:52:30.635Z,21.90
2023-04-19T10:55:34.590Z,6.88
2023-04-19T10:59:21.587Z,6.70
2023-04-19T11:02:25.076Z,10.88
2023-04-19T11:05:28.040Z,7.95
2023-04-19T11:08:30.560Z,10.15
2023-04-19T11:11:36.354Z,7.45
2023-04-19T11:14:49.349Z,9.10
2023-04-19T11:18:08.864Z,8.88
2023-04-19T11:21:15.463Z,12.13
2023-04-19T11:24:21.159Z,10.75
2023-04-19T11:27:23.544Z,16.17
2023-04-19T11:30:32.117Z,19.40
2023-04-19T11:33:38.044Z,51.88
2023-04-19T11:36:51.371Z,9.85
2023-04-19T11:39:53.808Z,11.15
2023-04-19T11:43:00.281Z,12.77
2023-04-19T11:46:13.487Z,12.85
2023-04-19T11:49:29.676Z,12.18
2023-04-19T11:52:36.107Z,10.38
2023-04-19T11:55:38.544Z,10.18
2023-04-19T11:58:51.576Z,10.07
2023-04-19T12:01:54.051Z,16.60
2023-04-19T12:04:56.651Z,18.98
2023-04-19T12:08:08.228Z,12.45
2023-04-19T12:11:10.602Z,8.05
2023-04-19T12:14:15.110Z,8.75
2023-04-19T12:17:17.754Z,8.98
2023-04-19T12:20:29.995Z,8.93
2023-04-19T12:23:32.359Z,9.30
2023-04-19T12:26:34.834Z,15.68
2023-04-19T12:29:37.339Z,18.15
2023-04-19T12:32:39.750Z,21.48
2023-04-19T12:35:43.129Z,18.70
2023-04-19T12:38:45.706Z,12.60
2023-04-19T12:41:51.237Z,14.32
2023-04-19T12:44:53.553Z,25.50
2023-04-19T12:47:56.296Z,12.95
2023-04-19T12:50:58.716Z,7.70
2023-04-19T12:54:02.547Z,7.78
2023-04-19T12:57:04.891Z,9.40
2023-04-19T13:00:08.869Z,8.95
2023-04-19T13:03:12.696Z,16.05
2023-04-19T13:06:16.946Z,8.85
2023-04-19T13:09:19.376Z,9.82
2023-04-19T13:12:21.756Z,9.38
2023-04-19T13:15:24.203Z,12.88
2023-04-19T13:18:26.602Z,24.27
2023-04-19T13:21:29.459Z,9.20
2023-04-19T13:24:31.811Z,9.00
2023-04-19T13:27:34.315Z,21.95
2023-04-19T13:30:36.854Z,15.77
2023-04-19T13:33:39.321Z,12.32
2023-04-19T13:36:41.668Z,13.88
2023-04-19T13:39:44.375Z,26.08
2023-04-19T13:42:46.730Z,14.43
2023-04-19T13:45:49.031Z,14.80
2023-04-19T13:48:51.448Z,14.65
2023-04-19T13:51:53.865Z,16.02
2023-04-19T13:54:56.422Z,10.85
2023-04-19T13:57:58.701Z,18.60
2023-04-19T14:01:01.167Z,25.30
2023-04-19T14:04:04.089Z,25.00
2023-04-19T14:07:07.402Z,19.35
2023-04-19T14:10:10.808Z,49.30
2023-04-19T14:13:13.279Z,23.45
2023-04-19T14:16:15.816Z,26.40
2023-04-19T14:19:18.197Z,17.83
2023-04-19T14:22:20.882Z,24.33
2023-04-19T14:25:23.357Z,17.08
2023-04-19T14:28:25.677Z,20.83
2023-04-19T14:31:28.106Z,16.58
2023-04-19T14:34:31.219Z,13.63
2023-04-19T14:37:33.636Z,14.15
2023-04-19T14:40:36.048Z,18.95
2023-04-19T14:43:38.590Z,14.38
2023-04-19T14:46:41.031Z,11.93
2023-04-19T14:49:43.327Z,18.67
2023-04-19T14:52:45.891Z,12.10
2023-04-19T14:55:48.242Z,13.77
2023-04-19T14:58:50.786Z,14.50
2023-04-19T15:01:53.604Z,15.35
2023-04-19T15:04:56.644Z,14.38
2023-04-19T15:07:59.302Z,14.30
2023-04-19T15:11:01.834Z,15.70
2023-04-19T15:14:04.254Z,14.05
2023-04-19T15:17:06.740Z,26.63
2023-04-19T15:20:09.737Z,29.20
2023-04-19T15:23:12.153Z,12.32
2023-04-19T15:26:14.734Z,14.68
2023-04-19T15:29:17.892Z,16.67
2023-04-19T15:32:20.665Z,21.38
2023-04-19T15:35:22.989Z,17.42
2023-04-19T15:38:27.598Z,22.98
2023-04-19T15:41:29.950Z,20.15
2023-04-19T15:44:32.436Z,19.77
2023-04-19T15:47:35.003Z,22.08
2023-04-19T15:50:38.035Z,22.42
2023-04-19T15:53:40.691Z,25.40
2023-04-19T15:56:43.158Z,24.58
2023-04-19T15:59:45.539Z,26.33
2023-04-19T16:02:48.526Z,22.80
2023-04-19T16:05:51.809Z,23.13
2023-04-19T16:08:54.126Z,35.95
2023-04-19T16:11:56.571Z,26.85
2023-04-19T16:14:58.972Z,26.83
2023-04-19T16:18:01.438Z,23.38
2023-04-19T16:21:04.250Z,22.55
2023-04-19T16:24:07.271Z,31.75
2023-04-19T16:27:09.658Z,24.40
2023-04-19T16:30:13.247Z,27.00
2023-04-19T16:33:16.014Z,18.98
2023-04-19T16:36:18.370Z,19.77
2023-04-19T16:39:20.772Z,20.95
2023-04-19T16:42:23.265Z,26.27
2023-04-19T16:45:26.078Z,22.92
2023-04-19T16:48:28.381Z,19.23
2023-04-19T16:51:30.750Z,17.63
2023-04-19T16:54:33.148Z,18.40
2023-04-19T16:57:36.801Z,19.92
2023-04-19T17:00:39.719Z,20.23
2023-04-19T17:03:42.659Z,15.45
2023-04-19T17:06:45.226Z,17.70
2023-04-19T17:09:47.639Z,18.42
2023-04-19T17:12:50.344Z,20.08
2023-04-19T17:15:53.157Z,22.27
2023-04-19T17:18:56.662Z,19.23
2023-04-19T17:22:05.130Z,22.20
2023-04-19T17:25:08.192Z,19.27
2023-04-19T17:28:10.738Z,19.75
2023-04-19T17:31:13.286Z,19.27
2023-04-19T17:34:15.921Z,18.70
2023-04-19T17:37:18.272Z,17.88
2023-04-19T17:40:20.884Z,19.40
2023-04-19T17:43:24.773Z,24.27
2023-04-19T17:46:27.318Z,19.83
2023-04-19T17:49:30.020Z,21.55
2023-04-19T17:52:32.477Z,31.95
2023-04-19T17:55:35.160Z,27.88
2023-04-19T17:58:37.681Z,26.83
2023-04-19T18:01:41.095Z,22.73
2023-04-19T18:04:45.558Z,15.40
2023-04-19T18:07:48.181Z,25.05
2023-04-19T18:10:51.302Z,26.55
2023-04-19T18:13:54.029Z,29.17
2023-04-19T18:16:56.408Z,53.13
2023-04-19T18:19:58.805Z,58.28
2023-04-19T18:23:01.992Z,40.50
2023-04-19T18:26:04.704Z,31.85
2023-04-19T18:29:07.281Z,32.88
2023-04-19T18:32:10.112Z,34.55
2023-04-19T18:35:12.771Z,26.52
2023-04-19T18:38:15.452Z,33.00
2023-04-19T18:41:17.771Z,21.77
2023-04-19T18:44:44.058Z,24.73
2023-04-19T18:47:42.730Z,27.13
2023-04-19T18:50:45.318Z,31.98
2023-04-19T18:53:49.282Z,31.05
2023-04-19T18:59:58.427Z,31.27
2023-04-19T19:03:02.902Z,30.23
2023-04-19T19:06:06.959Z,24.40
2023-04-19T19:09:09.667Z,21.17
2023-04-19T19:12:12.056Z,26.95
2023-04-19T19:15:14.955Z,28.45
2023-04-19T19:18:17.562Z,38.40
2023-04-19T19:21:20.138Z,42.40
2023-04-19T19:24:22.598Z,27.73
2023-04-19T19:27:25.447Z,31.63
2023-04-19T19:30:29.651Z,28.73
2023-04-19T19:33:32.371Z,28.63
2023-04-19T19:36:35.476Z,28.30
2023-04-19T19:39:37.793Z,23.88
2023-04-19T19:42:40.703Z,28.67
2023-04-19T19:45:43.266Z,35.53
2023-04-19T19:48:50.836Z,45.78
2023-04-19T19:51:58.940Z,21.45
2023-04-19T19:55:01.952Z,22.40
2023-04-19T20:01:10.364Z,20.60
2023-04-19T20:04:12.935Z,20.35
2023-04-19T20:10:20.781Z,21.55
2023-04-19T20:13:23.321Z,22.52
2023-04-19T20:16:25.943Z,27.58
2023-04-19T20:19:28.566Z,30.45
2023-04-19T20:22:30.944Z,18.27
2023-04-19T20:25:33.334Z,24.58
2023-04-19T20:28:35.790Z,22.05
2023-04-19T20:31:38.207Z,23.23
2023-04-19T20:34:40.729Z,27.15
2023-04-19T20:37:44.592Z,30.17
2023-04-19T20:40:47.226Z,22.83
2023-04-19T20:43:49.627Z,21.20
2023-04-19T20:46:52.250Z,21.17
2023-04-19T20:49:54.722Z,19.63
2023-04-19T20:52:58.255Z,28.35
2023-04-19T20:56:02.865Z,38.28
2023-04-19T20:59:06.472Z,36.75
2023-04-19T21:02:09.308Z,51.05
2023-04-19T21:05:12.071Z,61.83
2023-04-19T21:08:16.229Z,70.55
2023-04-19T21:11:18.697Z,49.15
2023-04-19T21:14:21.116Z,30.50
2023-04-19T21:17:23.457Z,55.83
2023-04-19T21:20:25.883Z,65.60
2023-04-19T21:23:28.328Z,40.90
2023-04-19T21:26:30.942Z,33.58
2023-04-19T21:29:33.385Z,35.78
2023-04-19T21:32:35.804Z,29.73
2023-04-19T21:35:38.320Z,34.17
2023-04-19T21:38:40.803Z,29.92
2023-04-19T21:41:43.166Z,31.38
2023-04-19T21:44:46.523Z,39.40
2023-04-19T21:47:48.976Z,24.60
2023-04-19T21:50:51.346Z,34.72
2023-04-19T21:53:53.653Z,31.02
2023-04-19T21:56:56.061Z,29.17
2023-04-19T21:59:58.483Z,27.33
2023-04-19T22:03:01.384Z,26.75
2023-04-19T22:06:04.245Z,36.25
2023-04-19T22:09:06.898Z,38.65
2023-04-19T22:12:10.702Z,30.88
2023-04-19T22:15:13.012Z,28.20
2023-04-19T22:18:15.611Z,34.15
2023-04-19T22:21:17.976Z,33.38
2023-04-19T22:24:21.908Z,31.15
2023-04-19T22:27:24.838Z,30.88
2023-04-19T22:30:27.354Z,30.35
2023-04-19T22:33:29.738Z,25.90
2023-04-19T22:36:32.090Z,25.95
2023-04-19T22:39:34.547Z,30.08
2023-04-19T22:42:37.308Z,31.88
2023-04-19T22:45:39.646Z,27.02
2023-04-19T22:48:42.756Z,30.75
2023-04-19T22:51:45.281Z,27.27
2023-04-19T22:54:47.662Z,30.70
2023-04-19T22:57:50.074Z,26.83
2023-04-19T23:00:52.668Z,27.35
2023-04-19T23:03:55.300Z,22.98
2023-04-19T23:06:57.822Z,26.20
2023-04-19T23:10:01.149Z,23.02
2023-04-19T23:13:03.493Z,22.53
2023-04-19T23:16:06.098Z,32.45
2023-04-19T23:19:09.687Z,25.00
2023-04-19T23:22:12.122Z,26.08
2023-04-19T23:25:14.512Z,29.02
2023-04-19T23:28:16.968Z,24.17
2023-04-19T23:31:19.391Z,26.08
2023-04-19T23:34:21.875Z,30.98
2023-04-19T23:37:24.278Z,28.95
2023-04-19T23:40:26.685Z,27.77
2023-04-19T23:43:29.177Z,31.38
2023-04-19T23:46:31.647Z,26.95
2023-04-19T23:49:33.985Z,25.95
2023-04-19T23:52:36.556Z,31.30
2023-04-19T23:55:38.998Z,26.05
2023-04-19T23:58:41.406Z,26.60
